createdAt,value
2023-04-16T00:01:46.430Z,13.20
2023-04-16T00:06:48.203Z,14.13
2023-04-16T00:11:49.980Z,13.85
2023-04-16T00:16:51.751Z,12.45
2023-04-16T00:21:53.692Z,14.43
2023-04-16T00:26:56.033Z,15.45
2023-04-16T00:31:57.894Z,13.93
2023-04-16T00:36:59.775Z,14.95
2023-04-16T00:42:01.943Z,11.98
2023-04-16T00:47:04.548Z,14.18
2023-04-16T00:52:06.750Z,15.80
2023-04-16T00:57:09.197Z,16.63
2023-04-16T01:02:13.002Z,16.65
2023-04-16T01:07:15.088Z,12.32
2023-04-16T01:12:16.918Z,13.95
2023-04-16T01:17:18.705Z,14.52
2023-04-16T01:22:20.924Z,15.13
2023-04-16T01:27:23.350Z,18.65
2023-04-16T01:32:25.409Z,12.75
2023-04-16T01:37:27.425Z,14.95
2023-04-16T01:42:29.290Z,20.88
2023-04-16T01:47:31.329Z,16.77
2023-04-16T01:52:33.206Z,13.00
2023-04-16T01:57:35.080Z,13.13
2023-04-16T02:02:38.503Z,17.98
2023-04-16T02:07:40.509Z,14.93
2023-04-16T02:12:42.285Z,13.55
2023-04-16T02:17:44.304Z,12.60
2023-04-16T02:22:49.369Z,12.63
2023-04-16T02:27:55.039Z,14.45
2023-04-16T02:33:05.647Z,17.05
2023-04-16T02:38:08.845Z,13.43
2023-04-16T02:43:11.167Z,13.77
2023-04-16T02:48:13.605Z,13.30
2023-04-16T02:53:15.408Z,14.52
2023-04-16T02:58:17.265Z,13.13
2023-04-16T03:03:19.147Z,14.73
2023-04-16T03:08:21.159Z,15.73
2023-04-16T03:13:23.108Z,13.43
2023-04-16T03:18:25.007Z,14.45
2023-04-16T03:23:26.857Z,15.73
2023-04-16T03:28:28.659Z,13.93
2023-04-16T03:33:30.395Z,13.75
2023-04-16T03:38:32.156Z,17.77
2023-04-16T03:43:34.749Z,14.00
2023-04-16T03:48:36.964Z,12.13
2023-04-16T03:53:39.005Z,10.95
2023-04-16T03:58:41.107Z,15.35
2023-04-16T04:03:44.067Z,16.35
2023-04-16T04:08:47.793Z,12.65
2023-04-16T04:13:50.302Z,13.98
2023-04-16T04:18:52.081Z,16.73
2023-04-16T04:23:56.038Z,15.35
2023-04-16T04:28:58.703Z,13.32
2023-04-16T04:34:00.730Z,13.45
2023-04-16T04:39:03.752Z,11.95
2023-04-16T04:44:05.823Z,12.95
2023-04-16T04:49:08.162Z,13.57
2023-04-16T04:54:10.368Z,11.88
2023-04-16T04:59:12.776Z,17.52
2023-04-16T05:04:15.880Z,13.25
2023-04-16T05:09:17.761Z,15.43
2023-04-16T05:14:19.669Z,17.77
2023-04-16T05:19:21.810Z,15.63
2023-04-16T05:24:23.622Z,13.98
2023-04-16T05:29:26.260Z,15.93
2023-04-16T05:34:28.013Z,14.52
2023-04-16T05:39:29.745Z,12.05
2023-04-16T05:44:31.503Z,18.40
2023-04-16T05:49:33.307Z,13.90
2023-04-16T05:54:35.445Z,16.63
2023-04-16T05:59:37.276Z,14.20
2023-04-16T06:04:39.081Z,11.77
2023-04-16T06:09:41.120Z,12.90
2023-04-16T06:14:42.903Z,14.73
2023-04-16T06:19:44.752Z,14.30
2023-04-16T06:24:46.626Z,11.95
2023-04-16T06:29:48.619Z,10.90
2023-04-16T06:34:50.450Z,13.02
2023-04-16T06:39:52.246Z,9.27
2023-04-16T06:44:54.053Z,11.15
2023-04-16T06:49:55.789Z,12.15
2023-04-16T06:54:57.539Z,13.38
2023-04-16T06:59:59.299Z,15.05
2023-04-16T07:05:01.152Z,10.32
2023-04-16T07:10:03.494Z,11.25
2023-04-16T07:15:06.269Z,10.30
2023-04-16T07:20:08.953Z,13.35
2023-04-16T07:25:11.050Z,9.75
2023-04-16T07:30:12.955Z,11.55
2023-04-16T07:35:14.809Z,7.53
2023-04-16T07:40:16.639Z,8.93
2023-04-16T07:45:19.774Z,8.35
2023-04-16T07:50:21.583Z,8.43
2023-04-16T07:55:23.393Z,11.57
2023-04-16T08:00:25.218Z,7.65
2023-04-16T08:05:27.765Z,13.77
2023-04-16T08:10:29.856Z,12.43
2023-04-16T08:15:31.866Z,11.57
2023-04-16T08:20:33.783Z,9.02
2023-04-16T08:25:35.820Z,10.45
2023-04-16T08:30:37.739Z,8.57
2023-04-16T08:35:39.874Z,6.20
2023-04-16T08:40:42.090Z,6.00
2023-04-16T08:45:44.231Z,8.13
2023-04-16T08:50:48.339Z,12.65
2023-04-16T08:55:51.966Z,9.50
2023-04-16T09:00:55.805Z,7.30
2023-04-16T09:05:59.303Z,9.18
2023-04-16T09:11:01.734Z,9.93
2023-04-16T09:16:04.154Z,4.93
2023-04-16T09:21:08.109Z,5.55
2023-04-16T09:26:10.090Z,8.88
2023-04-16T09:31:16.646Z,10.40
2023-04-16T09:36:23.159Z,8.15
2023-04-16T09:41:28.612Z,9.05
2023-04-16T09:46:32.326Z,11.63
2023-04-16T09:51:37.848Z,8.82
2023-04-16T09:56:42.409Z,8.18
2023-04-16T10:01:46.860Z,8.23
2023-04-16T10:07:07.629Z,9.88
2023-04-16T10:12:10.427Z,9.57
2023-04-16T10:17:12.382Z,10.50
2023-04-16T10:22:14.317Z,20.17
2023-04-16T10:27:17.288Z,11.88
2023-04-16T10:32:22.014Z,9.68
2023-04-16T10:37:33.256Z,12.35
2023-04-16T10:42:35.197Z,9.35
2023-04-16T10:47:40.832Z,8.80
2023-04-16T10:52:42.667Z,8.05
2023-04-16T10:57:49.477Z,10.32
2023-04-16T11:02:55.042Z,7.60
2023-04-16T11:08:14.550Z,6.95
2023-04-16T11:13:18.708Z,7.35
2023-04-16T11:18:20.687Z,11.75
2023-04-16T11:23:22.615Z,7.45
2023-04-16T11:28:35.951Z,6.78
2023-04-16T11:33:38.308Z,10.68
2023-04-16T11:38:41.833Z,6.45
2023-04-16T11:43:43.701Z,7.88
2023-04-16T11:48:51.181Z,6.65
2023-04-16T11:53:54.379Z,6.53
2023-04-16T11:59:17.090Z,7.00
2023-04-16T12:04:21.578Z,7.25
2023-04-16T12:09:27.615Z,6.78
2023-04-16T12:14:30.336Z,5.75
2023-04-16T12:19:32.367Z,7.50
2023-04-16T12:24:37.044Z,5.93
2023-04-16T12:29:38.899Z,4.57
2023-04-16T12:34:51.675Z,5.35
2023-04-16T12:39:54.432Z,6.40
2023-04-16T12:44:56.439Z,5.40
2023-04-16T12:49:59.045Z,4.40
2023-04-16T12:55:02.271Z,4.75
2023-04-16T13:00:06.496Z,5.13
2023-04-16T13:05:09.090Z,4.47
2023-04-16T13:10:11.099Z,8.20
2023-04-16T13:15:17.157Z,6.00
2023-04-16T13:20:19.016Z,3.80
2023-04-16T13:25:20.922Z,3.83
2023-04-16T13:30:22.764Z,3.10
2023-04-16T13:35:24.767Z,3.55
2023-04-16T13:40:26.639Z,9.27
2023-04-16T13:45:28.824Z,3.72
2023-04-16T13:50:31.061Z,5.13
2023-04-16T13:55:33.008Z,6.70
2023-04-16T14:00:34.955Z,5.22
2023-04-16T14:05:37.003Z,5.00
2023-04-16T14:10:38.870Z,4.05
2023-04-16T14:15:40.717Z,5.15
2023-04-16T14:20:42.476Z,8.13
2023-04-16T14:25:44.504Z,5.63
2023-04-16T14:30:46.477Z,5.07
2023-04-16T14:35:50.387Z,7.32
2023-04-16T14:40:52.389Z,5.25
2023-04-16T14:45:54.916Z,7.57
2023-04-16T14:50:56.849Z,6.43
2023-04-16T14:55:59.128Z,7.28
2023-04-16T15:01:01.105Z,7.10
2023-04-16T15:06:03.156Z,5.18
2023-04-16T15:11:05.196Z,6.97
2023-04-16T15:16:07.049Z,5.70
2023-04-16T15:21:10.519Z,4.07
2023-04-16T15:26:13.856Z,7.32
2023-04-16T15:31:15.928Z,5.57
2023-04-16T15:36:18.167Z,6.20
2023-04-16T15:41:20.105Z,5.03
2023-04-16T15:46:22.117Z,3.85
2023-04-16T15:51:24.161Z,3.75
2023-04-16T15:56:26.594Z,5.78
2023-04-16T16:01:28.471Z,4.57
2023-04-16T16:06:31.880Z,3.78
2023-04-16T16:11:34.062Z,3.72
2023-04-16T16:16:36.390Z,2.33
2023-04-16T16:21:38.727Z,5.18
2023-04-16T16:26:40.655Z,3.75
2023-04-16T16:31:42.770Z,3.97
2023-04-16T16:36:47.781Z,4.38
2023-04-16T16:41:52.327Z,3.78
2023-04-16T16:46:54.559Z,3.83
2023-04-16T16:51:56.332Z,5.57
2023-04-16T16:56:58.809Z,4.65
2023-04-16T17:02:00.864Z,3.20
2023-04-16T17:07:03.144Z,6.00
2023-04-16T17:12:05.694Z,5.68
2023-04-16T17:17:07.531Z,4.50
2023-04-16T17:22:10.103Z,3.63
2023-04-16T17:27:12.114Z,3.65
2023-04-16T17:32:14.028Z,4.50
2023-04-16T17:37:16.567Z,6.43
2023-04-16T17:42:18.944Z,6.95
2023-04-16T17:47:21.240Z,5.70
2023-04-16T17:52:23.482Z,7.03
2023-04-16T17:57:25.333Z,8.13
2023-04-16T18:02:27.445Z,9.63
2023-04-16T18:07:29.390Z,8.02
2023-04-16T18:12:31.338Z,10.55
2023-04-16T18:17:33.679Z,9.00
2023-04-16T18:22:35.575Z,11.95
2023-04-16T18:27:38.077Z,14.85
2023-04-16T18:37:47.700Z,11.88
2023-04-16T18:42:49.408Z,10.80
2023-04-16T18:47:51.305Z,12.02
2023-04-16T18:52:56.239Z,12.02
2023-04-16T18:57:58.147Z,15.02
2023-04-16T19:02:59.926Z,13.02
2023-04-16T19:08:05.180Z,8.50
2023-04-16T19:13:06.952Z,6.63
2023-04-16T19:18:09.049Z,6.28
2023-04-16T19:23:11.653Z,8.35
2023-04-16T19:28:13.533Z,9.32
2023-04-16T19:33:15.591Z,6.28
2023-04-16T19:38:17.476Z,7.50
2023-04-16T19:43:19.330Z,7.07
2023-04-16T19:48:21.566Z,7.05
2023-04-16T19:53:24.554Z,8.38
2023-04-16T19:58:26.523Z,3.78
2023-04-16T20:03:28.491Z,2.50
2023-04-16T20:08:30.788Z,2.95
2023-04-16T20:13:32.894Z,3.10
2023-04-16T20:18:41.712Z,3.60
2023-04-16T20:23:43.693Z,3.28
2023-04-16T20:28:45.778Z,4.00
2023-04-16T20:33:47.619Z,3.70
2023-04-16T20:38:51.507Z,3.67
2023-04-16T20:43:54.548Z,3.58
2023-04-16T20:48:56.416Z,4.47
2023-04-16T20:53:58.283Z,6.47
2023-04-16T20:59:00.054Z,4.40
2023-04-16T21:04:02.122Z,4.13
2023-04-16T21:09:06.075Z,3.90
2023-04-16T21:14:07.958Z,4.78
2023-04-16T21:19:10.056Z,5.72
2023-04-16T21:24:12.558Z,4.93
2023-04-16T21:29:14.516Z,7.20
2023-04-16T21:34:16.614Z,4.05
2023-04-16T21:39:19.870Z,3.40
2023-04-16T21:44:21.638Z,4.07
2023-04-16T21:49:23.750Z,4.45
2023-04-16T21:54:25.806Z,4.85
2023-04-16T21:59:27.533Z,5.10
2023-04-16T22:04:38.593Z,8.10
2023-04-16T22:09:40.911Z,6.82
2023-04-16T22:14:52.218Z,6.97
2023-04-16T22:20:04.953Z,7.00
2023-04-16T22:25:07.497Z,5.90
2023-04-16T22:30:13.305Z,9.63
2023-04-16T22:35:15.627Z,8.35
2023-04-16T22:40:18.468Z,9.70
2023-04-16T22:45:20.205Z,9.80
2023-04-16T22:50:23.224Z,6.70
2023-04-16T22:55:25.017Z,7.60
2023-04-16T23:00:27.417Z,8.18
2023-04-16T23:05:29.399Z,8.48
2023-04-16T23:10:31.217Z,7.15
2023-04-16T23:15:33.098Z,9.93
2023-04-16T23:20:34.981Z,9.32
2023-04-16T23:25:37.035Z,9.85
2023-04-16T23:30:38.786Z,7.80
2023-04-16T23:35:40.584Z,6.75
2023-04-16T23:40:42.336Z,6.57
2023-04-16T23:45:44.208Z,9.30
2023-04-16T23:50:46.129Z,9.13
2023-04-16T23:55:47.967Z,9.30
